sensor_id;sensor_type;location;lat;lon;timestamp;temperature;humidity
41471;DHT22;27211;51.220;5.308;2024-03-22T00:01:53;13.20;99.90
41471;DHT22;27211;51.220;5.308;2024-03-22T00:04:19;13.30;99.90
41471;DHT22;27211;51.220;5.308;2024-03-22T00:06:45;13.30;99.90
41471;DHT22;27211;51.220;5.308;2024-03-22T00:09:11;13.30;99.90
41471;DHT22;27211;51.220;5.308;2024-03-22T00:11:39;13.50;99.90
41471;DHT22;27211;51.220;5.308;2024-03-22T00:14:04;13.60;99.90
41471;DHT22;27211;51.220;5.308;2024-03-22T00:16:30;13.50;99.90
41471;DHT22;27211;51.220;5.308;2024-03-22T00:18:55;13.50;99.90
41471;DHT22;27211;51.220;5.308;2024-03-22T00:21:22;13.40;99.90
41471;DHT22;27211;51.220;5.308;2024-03-22T00:23:47;13.40;99.90
41471;DHT22;27211;51.220;5.308;2024-03-22T00:26:13;13.40;99.90
41471;DHT22;27211;51.220;5.308;2024-03-22T00:28:38;13.40;99.90
41471;DHT22;27211;51.220;5.308;2024-03-22T00:31:04;13.50;99.90
41471;DHT22;27211;51.220;5.308;2024-03-22T00:33:29;13.50;99.90
41471;DHT22;27211;51.220;5.308;2024-03-22T00:35:55;13.40;99.90
41471;DHT22;27211;51.220;5.308;2024-03-22T00:38:21;13.20;99.90
41471;DHT22;27211;51.220;5.308;2024-03-22T00:40:46;13.20;99.90
41471;DHT22;27211;51.220;5.308;2024-03-22T00:43:12;13.20;99.90
41471;DHT22;27211;51.220;5.308;2024-03-22T00:45:37;13.20;99.90
41471;DHT22;27211;51.220;5.308;2024-03-22T00:48:03;13.50;99.90
41471;DHT22;27211;51.220;5.308;2024-03-22T00:50:28;13.30;99.90
41471;DHT22;27211;51.220;5.308;2024-03-22T00:52:54;13.30;99.90
41471;DHT22;27211;51.220;5.308;2024-03-22T00:55:22;13.30;99.90
41471;DHT22;27211;51.220;5.308;2024-03-22T00:57:47;13.60;99.90
41471;DHT22;27211;51.220;5.308;2024-03-22T01:00:13;13.60;99.90
41471;DHT22;27211;51.220;5.308;2024-03-22T01:02:39;13.50;99.90
41471;DHT22;27211;51.220;5.308;2024-03-22T01:05:05;13.50;99.90
41471;DHT22;27211;51.220;5.308;2024-03-22T01:07:31;13.60;99.90
41471;DHT22;27211;51.220;5.308;2024-03-22T01:09:56;13.50;99.90
41471;DHT22;27211;51.220;5.308;2024-03-22T01:12:22;13.40;99.90
41471;DHT22;27211;51.220;5.308;2024-03-22T01:14:47;13.60;99.90
41471;DHT22;27211;51.220;5.308;2024-03-22T01:17:13;13.70;99.90
41471;DHT22;27211;51.220;5.308;2024-03-22T01:19:39;13.90;99.90
41471;DHT22;27211;51.220;5.308;2024-03-22T01:22:04;13.80;99.90
41471;DHT22;27211;51.220;5.308;2024-03-22T01:24:30;13.70;99.90
41471;DHT22;27211;51.220;5.308;2024-03-22T01:26:55;13.60;99.90
41471;DHT22;27211;51.220;5.308;2024-03-22T01:29:21;13.60;99.90
41471;DHT22;27211;51.220;5.308;2024-03-22T01:31:47;13.60;99.90
41471;DHT22;27211;51.220;5.308;2024-03-22T01:34:13;13.60;99.90
41471;DHT22;27211;51.220;5.308;2024-03-22T01:36:39;13.50;99.90
41471;DHT22;27211;51.220;5.308;2024-03-22T01:39:04;13.80;99.90
41471;DHT22;27211;51.220;5.308;2024-03-22T01:41:30;13.70;99.90
41471;DHT22;27211;51.220;5.308;2024-03-22T01:43:56;13.60;99.90
41471;DHT22;27211;51.220;5.308;2024-03-22T01:46:21;13.50;99.90
41471;DHT22;27211;51.220;5.308;2024-03-22T01:48:47;13.40;99.90
41471;DHT22;27211;51.220;5.308;2024-03-22T01:51:12;13.50;99.90
41471;DHT22;27211;51.220;5.308;2024-03-22T01:53:38;13.40;99.90
41471;DHT22;27211;51.220;5.308;2024-03-22T01:56:04;13.50;99.90
41471;DHT22;27211;51.220;5.308;2024-03-22T01:58:31;13.50;99.90
41471;DHT22;27211;51.220;5.308;2024-03-22T02:00:56;13.20;99.90
41471;DHT22;27211;51.220;5.308;2024-03-22T02:03:22;13.30;99.90
41471;DHT22;27211;51.220;5.308;2024-03-22T02:05:47;13.30;99.90
41471;DHT22;27211;51.220;5.308;2024-03-22T02:08:13;13.50;99.90
41471;DHT22;27211;51.220;5.308;2024-03-22T02:10:38;13.50;99.90
41471;DHT22;27211;51.220;5.308;2024-03-22T02:13:04;13.50;99.90
41471;DHT22;27211;51.220;5.308;2024-03-22T02:15:30;13.20;99.90
41471;DHT22;27211;51.220;5.308;2024-03-22T02:17:55;13.20;99.90
41471;DHT22;27211;51.220;5.308;2024-03-22T02:20:21;13.10;99.90
41471;DHT22;27211;51.220;5.308;2024-03-22T02:22:47;13.10;99.90
41471;DHT22;27211;51.220;5.308;2024-03-22T02:25:12;13.30;99.90
41471;DHT22;27211;51.220;5.308;2024-03-22T02:27:38;13.10;99.90
41471;DHT22;27211;51.220;5.308;2024-03-22T02:30:04;13.10;99.90
41471;DHT22;27211;51.220;5.308;2024-03-22T02:32:30;12.90;99.90
41471;DHT22;27211;51.220;5.308;2024-03-22T02:34:56;13.00;99.90
41471;DHT22;27211;51.220;5.308;2024-03-22T02:37:21;12.90;99.90
41471;DHT22;27211;51.220;5.308;2024-03-22T02:39:47;12.80;99.90
41471;DHT22;27211;51.220;5.308;2024-03-22T02:42:12;12.90;99.90
41471;DHT22;27211;51.220;5.308;2024-03-22T02:44:38;13.00;99.90
41471;DHT22;27211;51.220;5.308;2024-03-22T02:47:11;12.90;99.90
41471;DHT22;27211;51.220;5.308;2024-03-22T02:49:40;12.90;99.90
41471;DHT22;27211;51.220;5.308;2024-03-22T02:52:05;12.70;99.90
41471;DHT22;27211;51.220;5.308;2024-03-22T02:54:31;12.80;99.90
41471;DHT22;27211;51.220;5.308;2024-03-22T02:56:56;12.70;99.90
41471;DHT22;27211;51.220;5.308;2024-03-22T02:59:25;12.70;99.90
41471;DHT22;27211;51.220;5.308;2024-03-22T03:01:50;12.70;99.90
41471;DHT22;27211;51.220;5.308;2024-03-22T03:04:16;12.70;99.90
41471;DHT22;27211;51.220;5.308;2024-03-22T03:06:41;12.70;99.90
41471;DHT22;27211;51.220;5.308;2024-03-22T03:09:07;12.80;99.90
41471;DHT22;27211;51.220;5.308;2024-03-22T03:11:33;12.80;99.90
41471;DHT22;27211;51.220;5.308;2024-03-22T03:13:59;12.80;99.90
41471;DHT22;27211;51.220;5.308;2024-03-22T03:16:24;12.70;99.90
41471;DHT22;27211;51.220;5.308;2024-03-22T03:18:50;12.70;99.90
41471;DHT22;27211;51.220;5.308;2024-03-22T03:21:16;12.70;99.90
41471;DHT22;27211;51.220;5.308;2024-03-22T03:23:41;12.70;99.90
41471;DHT22;27211;51.220;5.308;2024-03-22T03:26:07;12.70;99.90
41471;DHT22;27211;51.220;5.308;2024-03-22T03:28:32;12.80;99.90
41471;DHT22;27211;51.220;5.308;2024-03-22T03:30:58;12.90;99.90
41471;DHT22;27211;51.220;5.308;2024-03-22T03:33:23;12.80;99.90
41471;DHT22;27211;51.220;5.308;2024-03-22T03:35:49;12.80;99.90
41471;DHT22;27211;51.220;5.308;2024-03-22T03:38:14;12.90;99.90
41471;DHT22;27211;51.220;5.308;2024-03-22T03:40:40;12.80;99.90
41471;DHT22;27211;51.220;5.308;2024-03-22T03:43:05;12.80;99.90
41471;DHT22;27211;51.220;5.308;2024-03-22T03:45:31;12.70;99.90
41471;DHT22;27211;51.220;5.308;2024-03-22T03:47:56;12.70;99.90
41471;DHT22;27211;51.220;5.308;2024-03-22T03:50:22;12.60;99.90
41471;DHT22;27211;51.220;5.308;2024-03-22T03:52:48;12.60;99.90
41471;DHT22;27211;51.220;5.308;2024-03-22T03:55:13;12.50;99.90
41471;DHT22;27211;51.220;5.308;2024-03-22T03:57:39;12.60;99.90
41471;DHT22;27211;51.220;5.308;2024-03-22T04:00:05;12.60;99.90
41471;DHT22;27211;51.220;5.308;2024-03-22T04:02:31;12.50;99.90
41471;DHT22;27211;51.220;5.308;2024-03-22T04:04:56;12.50;99.90
41471;DHT22;27211;51.220;5.308;2024-03-22T04:07:22;12.60;99.90
41471;DHT22;27211;51.220;5.308;2024-03-22T04:09:47;12.60;99.90
41471;DHT22;27211;51.220;5.308;2024-03-22T04:12:13;12.60;99.90
41471;DHT22;27211;51.220;5.308;2024-03-22T04:14:39;12.50;99.90
41471;DHT22;27211;51.220;5.308;2024-03-22T04:17:04;12.50;99.90
41471;DHT22;27211;51.220;5.308;2024-03-22T04:19:30;12.60;99.90
41471;DHT22;27211;51.220;5.308;2024-03-22T04:21:55;12.60;99.90
41471;DHT22;27211;51.220;5.308;2024-03-22T04:24:21;12.70;99.90
41471;DHT22;27211;51.220;5.308;2024-03-22T04:26:46;12.70;99.90
41471;DHT22;27211;51.220;5.308;2024-03-22T04:29:12;12.60;99.90
41471;DHT22;27211;51.220;5.308;2024-03-22T04:31:38;12.60;99.90
41471;DHT22;27211;51.220;5.308;2024-03-22T04:34:03;12.60;99.90
41471;DHT22;27211;51.220;5.308;2024-03-22T04:36:30;12.60;99.90
41471;DHT22;27211;51.220;5.308;2024-03-22T04:38:56;12.60;99.90
41471;DHT22;27211;51.220;5.308;2024-03-22T04:41:22;12.50;99.90
41471;DHT22;27211;51.220;5.308;2024-03-22T04:43:47;12.60;99.90
41471;DHT22;27211;51.220;5.308;2024-03-22T04:46:13;12.40;99.90
41471;DHT22;27211;51.220;5.308;2024-03-22T04:48:38;12.30;99.90
41471;DHT22;27211;51.220;5.308;2024-03-22T04:51:04;12.40;99.90
41471;DHT22;27211;51.220;5.308;2024-03-22T04:53:30;12.40;99.90
41471;DHT22;27211;51.220;5.308;2024-03-22T04:55:55;12.40;99.90
41471;DHT22;27211;51.220;5.308;2024-03-22T04:58:21;12.30;99.90
41471;DHT22;27211;51.220;5.308;2024-03-22T05:00:55;12.40;99.90
41471;DHT22;27211;51.220;5.308;2024-03-22T05:03:21;12.40;99.90
41471;DHT22;27211;51.220;5.308;2024-03-22T05:05:46;12.40;99.90
41471;DHT22;27211;51.220;5.308;2024-03-22T05:08:12;12.40;99.90
41471;DHT22;27211;51.220;5.308;2024-03-22T05:10:37;12.40;99.90
41471;DHT22;27211;51.220;5.308;2024-03-22T05:13:03;12.50;99.90
41471;DHT22;27211;51.220;5.308;2024-03-22T05:15:29;12.60;99.90
41471;DHT22;27211;51.220;5.308;2024-03-22T05:17:55;12.60;99.90
41471;DHT22;27211;51.220;5.308;2024-03-22T05:20:21;12.60;99.90
41471;DHT22;27211;51.220;5.308;2024-03-22T05:22:47;12.60;99.90
41471;DHT22;27211;51.220;5.308;2024-03-22T05:25:12;12.50;99.90
41471;DHT22;27211;51.220;5.308;2024-03-22T05:27:40;12.60;99.90
41471;DHT22;27211;51.220;5.308;2024-03-22T05:30:06;12.50;99.90
41471;DHT22;27211;51.220;5.308;2024-03-22T05:32:32;12.70;99.90
41471;DHT22;27211;51.220;5.308;2024-03-22T05:34:58;12.50;99.90
41471;DHT22;27211;51.220;5.308;2024-03-22T05:37:23;12.40;99.90
41471;DHT22;27211;51.220;5.308;2024-03-22T05:39:49;12.40;99.90
41471;DHT22;27211;51.220;5.308;2024-03-22T05:42:15;12.30;99.90
41471;DHT22;27211;51.220;5.308;2024-03-22T05:44:40;12.40;99.90
41471;DHT22;27211;51.220;5.308;2024-03-22T05:47:06;12.50;99.90
41471;DHT22;27211;51.220;5.308;2024-03-22T05:49:31;12.40;99.90
41471;DHT22;27211;51.220;5.308;2024-03-22T05:51:57;12.40;99.90
41471;DHT22;27211;51.220;5.308;2024-03-22T05:54:22;12.20;99.90
41471;DHT22;27211;51.220;5.308;2024-03-22T05:56:48;12.40;99.90
41471;DHT22;27211;51.220;5.308;2024-03-22T05:59:13;12.40;99.90
41471;DHT22;27211;51.220;5.308;2024-03-22T06:01:39;12.40;99.90
41471;DHT22;27211;51.220;5.308;2024-03-22T06:04:05;12.20;99.90
41471;DHT22;27211;51.220;5.308;2024-03-22T06:06:36;12.30;99.90
41471;DHT22;27211;51.220;5.308;2024-03-22T06:09:03;12.30;99.90
41471;DHT22;27211;51.220;5.308;2024-03-22T06:11:32;12.20;99.90
41471;DHT22;27211;51.220;5.308;2024-03-22T06:13:57;12.40;99.90
41471;DHT22;27211;51.220;5.308;2024-03-22T06:16:23;12.40;99.90
41471;DHT22;27211;51.220;5.308;2024-03-22T06:18:49;12.50;99.90
41471;DHT22;27211;51.220;5.308;2024-03-22T06:21:14;12.60;99.90
41471;DHT22;27211;51.220;5.308;2024-03-22T06:23:40;12.30;99.90
41471;DHT22;27211;51.220;5.308;2024-03-22T06:26:07;12.30;99.90
41471;DHT22;27211;51.220;5.308;2024-03-22T06:28:32;12.40;99.90
41471;DHT22;27211;51.220;5.308;2024-03-22T06:30:58;12.40;99.90
41471;DHT22;27211;51.220;5.308;2024-03-22T06:33:23;12.40;99.90
41471;DHT22;27211;51.220;5.308;2024-03-22T06:35:49;12.50;99.90
41471;DHT22;27211;51.220;5.308;2024-03-22T06:38:14;12.50;99.90
41471;DHT22;27211;51.220;5.308;2024-03-22T06:40:40;12.30;99.90
41471;DHT22;27211;51.220;5.308;2024-03-22T06:43:06;12.40;99.90
41471;DHT22;27211;51.220;5.308;2024-03-22T06:45:31;12.40;99.90
41471;DHT22;27211;51.220;5.308;2024-03-22T06:47:57;12.40;99.90
41471;DHT22;27211;51.220;5.308;2024-03-22T06:50:22;12.60;99.90
41471;DHT22;27211;51.220;5.308;2024-03-22T06:52:53;12.60;99.90
41471;DHT22;27211;51.220;5.308;2024-03-22T06:55:19;12.50;99.90
41471;DHT22;27211;51.220;5.308;2024-03-22T06:57:48;12.70;99.90
41471;DHT22;27211;51.220;5.308;2024-03-22T07:00:14;12.60;99.90
41471;DHT22;27211;51.220;5.308;2024-03-22T07:02:39;12.80;99.90
41471;DHT22;27211;51.220;5.308;2024-03-22T07:05:08;12.70;99.90
41471;DHT22;27211;51.220;5.308;2024-03-22T07:07:35;12.50;99.90
41471;DHT22;27211;51.220;5.308;2024-03-22T07:10:01;12.60;99.90
41471;DHT22;27211;51.220;5.308;2024-03-22T07:12:26;12.50;99.90
41471;DHT22;27211;51.220;5.308;2024-03-22T07:14:52;12.50;99.90
41471;DHT22;27211;51.220;5.308;2024-03-22T07:17:18;12.50;99.90
41471;DHT22;27211;51.220;5.308;2024-03-22T07:19:45;12.50;99.90
41471;DHT22;27211;51.220;5.308;2024-03-22T07:22:10;12.50;99.90
41471;DHT22;27211;51.220;5.308;2024-03-22T07:24:36;12.50;99.90
41471;DHT22;27211;51.220;5.308;2024-03-22T07:27:01;12.60;99.90
41471;DHT22;27211;51.220;5.308;2024-03-22T07:29:27;12.60;99.90
41471;DHT22;27211;51.220;5.308;2024-03-22T07:31:52;12.50;99.90
41471;DHT22;27211;51.220;5.308;2024-03-22T07:34:18;12.50;99.90
41471;DHT22;27211;51.220;5.308;2024-03-22T07:36:44;12.60;99.90
41471;DHT22;27211;51.220;5.308;2024-03-22T07:39:09;12.60;99.90
41471;DHT22;27211;51.220;5.308;2024-03-22T07:41:35;12.60;99.90
41471;DHT22;27211;51.220;5.308;2024-03-22T07:44:00;12.60;99.90
41471;DHT22;27211;51.220;5.308;2024-03-22T07:46:26;12.70;99.90
41471;DHT22;27211;51.220;5.308;2024-03-22T07:48:55;12.70;99.90
41471;DHT22;27211;51.220;5.308;2024-03-22T07:51:29;12.90;99.90
41471;DHT22;27211;51.220;5.308;2024-03-22T07:53:55;13.10;99.90
41471;DHT22;27211;51.220;5.308;2024-03-22T07:56:20;13.50;99.90
41471;DHT22;27211;51.220;5.308;2024-03-22T07:58:46;13.90;99.90
41471;DHT22;27211;51.220;5.308;2024-03-22T08:01:12;14.50;99.90
41471;DHT22;27211;51.220;5.308;2024-03-22T08:03:37;15.00;99.90
41471;DHT22;27211;51.220;5.308;2024-03-22T08:06:03;15.00;99.90
41471;DHT22;27211;51.220;5.308;2024-03-22T08:08:29;15.20;99.90
41471;DHT22;27211;51.220;5.308;2024-03-22T08:10:55;15.10;99.90
41471;DHT22;27211;51.220;5.308;2024-03-22T08:13:20;15.30;99.90
41471;DHT22;27211;51.220;5.308;2024-03-22T08:15:46;15.80;99.90
41471;DHT22;27211;51.220;5.308;2024-03-22T08:18:11;15.90;99.90
41471;DHT22;27211;51.220;5.308;2024-03-22T08:20:37;15.50;99.90
41471;DHT22;27211;51.220;5.308;2024-03-22T08:23:04;15.60;99.90
41471;DHT22;27211;51.220;5.308;2024-03-22T08:25:33;15.80;99.90
41471;DHT22;27211;51.220;5.308;2024-03-22T08:27:58;15.40;99.90
41471;DHT22;27211;51.220;5.308;2024-03-22T08:30:24;15.50;99.90
41471;DHT22;27211;51.220;5.308;2024-03-22T08:32:50;15.50;99.90
41471;DHT22;27211;51.220;5.308;2024-03-22T08:35:16;15.00;99.90
41471;DHT22;27211;51.220;5.308;2024-03-22T08:37:42;15.00;99.90
41471;DHT22;27211;51.220;5.308;2024-03-22T08:40:07;14.90;99.90
41471;DHT22;27211;51.220;5.308;2024-03-22T08:42:33;14.60;99.90
